sensor_id;sensor_type;location;lat;lon;timestamp;pressure;altitude;pressure_sealevel;temperature;humidity
44351;BME280;62766;62.622;17.912;2023-05-03T00:00:07;101236.75;;;4.14;41.54
44351;BME280;62766;62.622;17.912;2023-05-03T00:02:37;101240.46;;;4.12;41.23
44351;BME280;62766;62.622;17.912;2023-05-03T00:05:07;101241.73;;;4.17;41.17
44351;BME280;62766;62.622;17.912;2023-05-03T00:07:37;101239.59;;;3.94;41.19
44351;BME280;62766;62.622;17.912;2023-05-03T00:10:08;101242.33;;;4.00;41.37
44351;BME280;62766;62.622;17.912;2023-05-03T00:12:38;101243.22;;;4.07;41.29
44351;BME280;62766;62.622;17.912;2023-05-03T00:15:09;101245.54;;;4.10;41.23
44351;BME280;62766;62.622;17.912;2023-05-03T00:17:38;101245.38;;;4.03;41.19
44351;BME280;62766;62.622;17.912;2023-05-03T00:20:07;101246.26;;;4.12;41.22
44351;BME280;62766;62.622;17.912;2023-05-03T00:22:37;101251.72;;;4.09;41.24
44351;BME280;62766;62.622;17.912;2023-05-03T00:25:07;101249.14;;;3.99;41.18
44351;BME280;62766;62.622;17.912;2023-05-03T00:27:38;101252.12;;;4.08;41.21
44351;BME280;62766;62.622;17.912;2023-05-03T00:30:08;101252.63;;;3.97;41.08
44351;BME280;62766;62.622;17.912;2023-05-03T00:32:38;101251.15;;;4.01;41.13
44351;BME280;62766;62.622;17.912;2023-05-03T00:35:06;101257.28;;;3.97;41.11
44351;BME280;62766;62.622;17.912;2023-05-03T00:37:36;101259.58;;;4.03;41.20
44351;BME280;62766;62.622;17.912;2023-05-03T00:40:07;101262.43;;;4.00;41.31
44351;BME280;62766;62.622;17.912;2023-05-03T00:42:37;101261.59;;;3.95;41.42
44351;BME280;62766;62.622;17.912;2023-05-03T00:45:07;101268.76;;;4.03;41.29
44351;BME280;62766;62.622;17.912;2023-05-03T00:47:36;101272.34;;;4.05;41.35
44351;BME280;62766;62.622;17.912;2023-05-03T00:50:06;101271.81;;;4.11;41.22
44351;BME280;62766;62.622;17.912;2023-05-03T00:52:35;101278.18;;;4.05;41.19
44351;BME280;62766;62.622;17.912;2023-05-03T00:55:04;101276.13;;;4.12;41.18
44351;BME280;62766;62.622;17.912;2023-05-03T00:57:33;101278.94;;;4.21;41.20
44351;BME280;62766;62.622;17.912;2023-05-03T01:00:02;101285.30;;;4.08;41.34
44351;BME280;62766;62.622;17.912;2023-05-03T01:02:30;101288.01;;;3.95;41.49
44351;BME280;62766;62.622;17.912;2023-05-03T01:04:59;101291.45;;;3.93;41.86
44351;BME280;62766;62.622;17.912;2023-05-03T01:07:38;101290.31;;;3.88;42.02
44351;BME280;62766;62.622;17.912;2023-05-03T01:10:18;101295.91;;;3.84;42.10
44351;BME280;62766;62.622;17.912;2023-05-03T01:12:54;101298.71;;;3.79;42.40
44351;BME280;62766;62.622;17.912;2023-05-03T01:15:37;101301.11;;;3.70;42.86
44351;BME280;62766;62.622;17.912;2023-05-03T01:18:10;101302.23;;;3.60;43.07
44351;BME280;62766;62.622;17.912;2023-05-03T01:20:43;101303.64;;;3.53;43.34
44351;BME280;62766;62.622;17.912;2023-05-03T01:23:21;101306.12;;;3.40;43.61
44351;BME280;62766;62.622;17.912;2023-05-03T01:25:56;101311.13;;;3.26;43.87
44351;BME280;62766;62.622;17.912;2023-05-03T01:28:24;101311.01;;;3.26;44.04
44351;BME280;62766;62.622;17.912;2023-05-03T01:30:53;101312.93;;;3.24;44.25
44351;BME280;62766;62.622;17.912;2023-05-03T01:33:30;101312.63;;;3.08;44.47
44351;BME280;62766;62.622;17.912;2023-05-03T01:36:06;101318.77;;;3.16;44.52
44351;BME280;62766;62.622;17.912;2023-05-03T01:38:39;101319.84;;;3.22;44.59
44351;BME280;62766;62.622;17.912;2023-05-03T01:41:10;101318.60;;;3.12;44.66
44351;BME280;62766;62.622;17.912;2023-05-03T01:43:40;101320.36;;;3.11;44.55
44351;BME280;62766;62.622;17.912;2023-05-03T01:46:10;101322.07;;;3.35;44.55
44351;BME280;62766;62.622;17.912;2023-05-03T01:48:38;101326.25;;;3.25;44.71
44351;BME280;62766;62.622;17.912;2023-05-03T01:51:06;101327.94;;;3.12;44.92
44351;BME280;62766;62.622;17.912;2023-05-03T01:53:35;101333.04;;;3.10;45.03
44351;BME280;62766;62.622;17.912;2023-05-03T01:56:05;101334.54;;;3.07;45.23
44351;BME280;62766;62.622;17.912;2023-05-03T01:58:34;101334.42;;;3.04;45.46
44351;BME280;62766;62.622;17.912;2023-05-03T02:01:03;101339.25;;;3.05;45.65
44351;BME280;62766;62.622;17.912;2023-05-03T02:03:32;101345.49;;;3.08;45.86
44351;BME280;62766;62.622;17.912;2023-05-03T02:06:00;101341.09;;;3.01;45.89
44351;BME280;62766;62.622;17.912;2023-05-03T02:08:29;101349.19;;;3.09;46.01
44351;BME280;62766;62.622;17.912;2023-05-03T02:10:57;101348.97;;;3.06;46.06
44351;BME280;62766;62.622;17.912;2023-05-03T02:13:26;101349.54;;;3.02;46.13
44351;BME280;62766;62.622;17.912;2023-05-03T02:15:54;101353.01;;;2.99;46.17
44351;BME280;62766;62.622;17.912;2023-05-03T02:18:23;101351.26;;;3.04;46.41
44351;BME280;62766;62.622;17.912;2023-05-03T02:20:51;101355.41;;;2.91;46.65
44351;BME280;62766;62.622;17.912;2023-05-03T02:23:20;101354.65;;;2.94;46.79
44351;BME280;62766;62.622;17.912;2023-05-03T02:25:48;101355.85;;;2.97;46.81
44351;BME280;62766;62.622;17.912;2023-05-03T02:28:17;101353.27;;;3.03;46.91
44351;BME280;62766;62.622;17.912;2023-05-03T02:30:45;101354.10;;;3.09;46.96
44351;BME280;62766;62.622;17.912;2023-05-03T02:33:14;101356.04;;;2.94;47.11
44351;BME280;62766;62.622;17.912;2023-05-03T02:35:42;101352.58;;;2.94;47.24
44351;BME280;62766;62.622;17.912;2023-05-03T02:38:10;101351.35;;;2.97;47.24
44351;BME280;62766;62.622;17.912;2023-05-03T02:40:39;101355.64;;;3.00;47.21
44351;BME280;62766;62.622;17.912;2023-05-03T02:43:08;101352.34;;;3.01;47.24
44351;BME280;62766;62.622;17.912;2023-05-03T02:45:36;101354.38;;;3.10;47.17
44351;BME280;62766;62.622;17.912;2023-05-03T02:48:06;101355.50;;;3.21;47.27
44351;BME280;62766;62.622;17.912;2023-05-03T02:50:34;101353.74;;;3.16;47.24
44351;BME280;62766;62.622;17.912;2023-05-03T02:53:03;101360.08;;;3.08;47.30
44351;BME280;62766;62.622;17.912;2023-05-03T02:55:31;101362.33;;;3.10;47.39
44351;BME280;62766;62.622;17.912;2023-05-03T02:58:00;101369.85;;;3.16;47.42
44351;BME280;62766;62.622;17.912;2023-05-03T03:00:28;101367.18;;;3.13;47.40
44351;BME280;62766;62.622;17.912;2023-05-03T03:02:56;101375.03;;;3.20;47.38
44351;BME280;62766;62.622;17.912;2023-05-03T03:05:25;101377.49;;;3.25;47.32
44351;BME280;62766;62.622;17.912;2023-05-03T03:07:53;101378.28;;;3.25;47.52
44351;BME280;62766;62.622;17.912;2023-05-03T03:10:22;101377.25;;;3.12;47.63
44351;BME280;62766;62.622;17.912;2023-05-03T03:12:50;101379.31;;;3.21;47.79
44351;BME280;62766;62.622;17.912;2023-05-03T03:15:19;101381.03;;;3.10;47.87
44351;BME280;62766;62.622;17.912;2023-05-03T03:17:47;101385.13;;;3.00;48.05
44351;BME280;62766;62.622;17.912;2023-05-03T03:20:16;101393.76;;;3.03;48.13
44351;BME280;62766;62.622;17.912;2023-05-03T03:22:44;101394.96;;;3.11;48.13
44351;BME280;62766;62.622;17.912;2023-05-03T03:25:12;101398.04;;;3.06;48.12
44351;BME280;62766;62.622;17.912;2023-05-03T03:27:41;101400.85;;;3.09;48.14
44351;BME280;62766;62.622;17.912;2023-05-03T03:30:10;101405.87;;;3.03;48.19
44351;BME280;62766;62.622;17.912;2023-05-03T03:32:38;101408.95;;;3.05;48.13
44351;BME280;62766;62.622;17.912;2023-05-03T03:35:07;101411.52;;;3.28;48.01
44351;BME280;62766;62.622;17.912;2023-05-03T03:37:37;101412.30;;;3.23;48.03
44351;BME280;62766;62.622;17.912;2023-05-03T03:40:08;101418.80;;;3.27;48.16
44351;BME280;62766;62.622;17.912;2023-05-03T03:42:38;101417.95;;;3.28;48.13
44351;BME280;62766;62.622;17.912;2023-05-03T03:45:08;101424.04;;;3.36;48.18
44351;BME280;62766;62.622;17.912;2023-05-03T03:47:38;101426.74;;;3.30;48.13
44351;BME280;62766;62.622;17.912;2023-05-03T03:50:06;101428.01;;;3.48;48.21
44351;BME280;62766;62.622;17.912;2023-05-03T03:52:34;101429.91;;;3.40;48.15
44351;BME280;62766;62.622;17.912;2023-05-03T03:55:03;101433.15;;;3.43;48.26
44351;BME280;62766;62.622;17.912;2023-05-03T03:57:31;101433.05;;;3.47;48.19
44351;BME280;62766;62.622;17.912;2023-05-03T03:59:59;101440.02;;;3.64;48.19
44351;BME280;62766;62.622;17.912;2023-05-03T04:03:27;101440.09;;;3.53;48.37
44351;BME280;62766;62.622;17.912;2023-05-03T04:05:56;101442.60;;;3.56;48.31
44351;BME280;62766;62.622;17.912;2023-05-03T04:08:24;101443.45;;;3.64;48.31
44351;BME280;62766;62.622;17.912;2023-05-03T04:10:53;101446.86;;;3.78;48.10
44351;BME280;62766;62.622;17.912;2023-05-03T04:13:21;101453.02;;;3.80;48.08
44351;BME280;62766;62.622;17.912;2023-05-03T04:15:53;101453.83;;;3.91;48.07
44351;BME280;62766;62.622;17.912;2023-05-03T04:18:21;101458.09;;;3.96;48.01
44351;BME280;62766;62.622;17.912;2023-05-03T04:20:50;101459.13;;;4.25;47.88
44351;BME280;62766;62.622;17.912;2023-05-03T04:23:18;101458.29;;;4.23;47.66
44351;BME280;62766;62.622;17.912;2023-05-03T04:25:47;101455.96;;;4.22;47.73
44351;BME280;62766;62.622;17.912;2023-05-03T04:28:15;101461.83;;;4.26;47.56
44351;BME280;62766;62.622;17.912;2023-05-03T04:30:44;101465.42;;;4.12;47.77
44351;BME280;62766;62.622;17.912;2023-05-03T04:33:12;101470.11;;;4.24;47.88
44351;BME280;62766;62.622;17.912;2023-05-03T04:35:40;101468.89;;;4.28;47.99
44351;BME280;62766;62.622;17.912;2023-05-03T04:38:09;101477.40;;;4.29;48.15
44351;BME280;62766;62.622;17.912;2023-05-03T04:40:37;101484.67;;;4.43;48.23
44351;BME280;62766;62.622;17.912;2023-05-03T04:43:06;101484.78;;;4.49;48.31
44351;BME280;62766;62.622;17.912;2023-05-03T04:45:34;101483.28;;;4.37;48.58
44351;BME280;62766;62.622;17.912;2023-05-03T04:48:03;101490.13;;;4.51;48.62
44351;BME280;62766;62.622;17.912;2023-05-03T04:50:32;101499.41;;;4.55;48.67
44351;BME280;62766;62.622;17.912;2023-05-03T04:53:01;101496.28;;;4.53;48.91
44351;BME280;62766;62.622;17.912;2023-05-03T04:55:30;101500.42;;;4.55;48.95
44351;BME280;62766;62.622;17.912;2023-05-03T04:57:58;101500.40;;;4.58;49.00
44351;BME280;62766;62.622;17.912;2023-05-03T05:00:26;101506.25;;;4.77;49.00
44351;BME280;62766;62.622;17.912;2023-05-03T05:02:55;101511.04;;;4.84;48.79
44351;BME280;62766;62.622;17.912;2023-05-03T05:05:23;101517.32;;;4.64;49.02
44351;BME280;62766;62.622;17.912;2023-05-03T05:07:52;101517.19;;;4.80;48.76
44351;BME280;62766;62.622;17.912;2023-05-03T05:10:20;101521.19;;;4.75;48.75
44351;BME280;62766;62.622;17.912;2023-05-03T05:12:48;101524.77;;;4.50;48.74
44351;BME280;62766;62.622;17.912;2023-05-03T05:15:18;101524.90;;;4.47;48.81
44351;BME280;62766;62.622;17.912;2023-05-03T05:17:47;101526.85;;;4.52;48.83
44351;BME280;62766;62.622;17.912;2023-05-03T05:20:16;101533.61;;;4.38;49.00
44351;BME280;62766;62.622;17.912;2023-05-03T05:22:44;101532.19;;;4.42;48.79
44351;BME280;62766;62.622;17.912;2023-05-03T05:25:12;101532.80;;;4.41;49.01
44351;BME280;62766;62.622;17.912;2023-05-03T05:27:41;101534.35;;;4.64;48.60
44351;BME280;62766;62.622;17.912;2023-05-03T05:30:09;101534.58;;;4.82;48.08
44351;BME280;62766;62.622;17.912;2023-05-03T05:32:38;101531.45;;;5.01;47.77
44351;BME280;62766;62.622;17.912;2023-05-03T05:35:06;101539.86;;;5.15;47.46
44351;BME280;62766;62.622;17.912;2023-05-03T05:37:36;101540.14;;;5.24;46.91
44351;BME280;62766;62.622;17.912;2023-05-03T05:40:06;101543.23;;;5.48;46.73
44351;BME280;62766;62.622;17.912;2023-05-03T05:42:34;101546.39;;;5.50;45.84
44351;BME280;62766;62.622;17.912;2023-05-03T05:45:04;101550.47;;;5.45;45.94
44351;BME280;62766;62.622;17.912;2023-05-03T05:47:33;101551.20;;;5.64;46.01
44351;BME280;62766;62.622;17.912;2023-05-03T05:50:02;101555.72;;;5.78;45.35
44351;BME280;62766;62.622;17.912;2023-05-03T05:52:30;101556.63;;;5.77;45.10
44351;BME280;62766;62.622;17.912;2023-05-03T05:54:58;101569.71;;;5.92;44.42
44351;BME280;62766;62.622;17.912;2023-05-03T05:57:27;101562.58;;;5.46;44.57
44351;BME280;62766;62.622;17.912;2023-05-03T05:59:55;101573.69;;;5.44;44.38
44351;BME280;62766;62.622;17.912;2023-05-03T06:02:23;101572.28;;;5.28;44.19
44351;BME280;62766;62.622;17.912;2023-05-03T06:04:52;101579.15;;;5.17;44.06
44351;BME280;62766;62.622;17.912;2023-05-03T06:07:20;101579.64;;;5.15;44.04
44351;BME280;62766;62.622;17.912;2023-05-03T06:09:48;101579.73;;;5.05;44.14
44351;BME280;62766;62.622;17.912;2023-05-03T06:12:17;101583.78;;;5.15;43.94
44351;BME280;62766;62.622;17.912;2023-05-03T06:14:45;101577.69;;;5.18;43.85
44351;BME280;62766;62.622;17.912;2023-05-03T06:17:14;101589.37;;;5.22;43.52
44351;BME280;62766;62.622;17.912;2023-05-03T06:19:42;101591.25;;;5.16;43.49
44351;BME280;62766;62.622;17.912;2023-05-03T06:22:10;101595.67;;;5.17;42.67
44351;BME280;62766;62.622;17.912;2023-05-03T06:24:39;101596.75;;;5.10;42.65
44351;BME280;62766;62.622;17.912;2023-05-03T06:27:07;101599.60;;;5.02;42.85
44351;BME280;62766;62.622;17.912;2023-05-03T06:29:36;101601.90;;;5.08;42.98
44351;BME280;62766;62.622;17.912;2023-05-03T06:32:04;101604.13;;;4.96;42.85
44351;BME280;62766;62.622;17.912;2023-05-03T06:34:33;101612.86;;;5.26;41.91
44351;BME280;62766;62.622;17.912;2023-05-03T06:37:01;101612.66;;;5.40;41.92
44351;BME280;62766;62.622;17.912;2023-05-03T06:39:29;101615.08;;;5.74;41.62
44351;BME280;62766;62.622;17.912;2023-05-03T06:41:58;101622.61;;;5.86;40.89
44351;BME280;62766;62.622;17.912;2023-05-03T06:44:26;101622.69;;;6.14;40.74
44351;BME280;62766;62.622;17.912;2023-05-03T06:46:54;101622.54;;;6.20;40.13
44351;BME280;62766;62.622;17.912;2023-05-03T06:49:23;101627.01;;;6.24;39.50
44351;BME280;62766;62.622;17.912;2023-05-03T06:51:51;101627.05;;;6.26;39.33
44351;BME280;62766;62.622;17.912;2023-05-03T06:54:19;101631.97;;;6.44;38.38
44351;BME280;62766;62.622;17.912;2023-05-03T06:56:48;101632.48;;;6.45;38.37
44351;BME280;62766;62.622;17.912;2023-05-03T06:59:16;101637.03;;;6.40;38.42
44351;BME280;62766;62.622;17.912;2023-05-03T07:01:45;101644.01;;;6.53;37.72
44351;BME280;62766;62.622;17.912;2023-05-03T07:04:13;101648.06;;;6.58;37.25
44351;BME280;62766;62.622;17.912;2023-05-03T07:06:41;101649.93;;;6.63;36.77
44351;BME280;62766;62.622;17.912;2023-05-03T07:09:10;101655.31;;;6.68;36.31
44351;BME280;62766;62.622;17.912;2023-05-03T07:11:38;101658.56;;;6.76;36.29
44351;BME280;62766;62.622;17.912;2023-05-03T07:14:06;101659.40;;;6.65;36.18
44351;BME280;62766;62.622;17.912;2023-05-03T07:16:35;101662.62;;;6.53;35.63
44351;BME280;62766;62.622;17.912;2023-05-03T07:19:03;101668.91;;;6.51;35.71
44351;BME280;62766;62.622;17.912;2023-05-03T07:21:32;101667.74;;;6.77;35.57
44351;BME280;62766;62.622;17.912;2023-05-03T07:24:02;101669.47;;;6.72;35.68
44351;BME280;62766;62.622;17.912;2023-05-03T07:26:31;101675.27;;;7.02;35.10
44351;BME280;62766;62.622;17.912;2023-05-03T07:29:00;101679.15;;;7.15;34.74
44351;BME280;62766;62.622;17.912;2023-05-03T07:31:29;101678.51;;;7.21;33.93
44351;BME280;62766;62.622;17.912;2023-05-03T07:33:57;101680.92;;;7.03;33.97
44351;BME280;62766;62.622;17.912;2023-05-03T07:36:25;101685.30;;;6.85;33.72
44351;BME280;62766;62.622;17.912;2023-05-03T07:38:54;101692.25;;;6.72;34.10
44351;BME280;62766;62.622;17.912;2023-05-03T07:41:22;101693.20;;;6.72;34.41
44351;BME280;62766;62.622;17.912;2023-05-03T07:43:51;101692.21;;;6.80;34.45
44351;BME280;62766;62.622;17.912;2023-05-03T07:46:19;101703.59;;;6.67;34.43
44351;BME280;62766;62.622;17.912;2023-05-03T07:48:47;101704.66;;;6.81;34.06
44351;BME280;62766;62.622;17.912;2023-05-03T07:51:16;101705.00;;;6.83;34.04
44351;BME280;62766;62.622;17.912;2023-05-03T07:53:44;101715.30;;;6.79;34.12
44351;BME280;62766;62.622;17.912;2023-05-03T07:56:12;101715.10;;;7.06;34.14
44351;BME280;62766;62.622;17.912;2023-05-03T07:58:41;101716.52;;;7.16;33.94
44351;BME280;62766;62.622;17.912;2023-05-03T08:01:09;101723.16;;;7.23;33.35
44351;BME280;62766;62.622;17.912;2023-05-03T08:03:37;101726.96;;;7.18;33.56
44351;BME280;62766;62.622;17.912;2023-05-03T08:06:06;101732.16;;;7.12;33.33
44351;BME280;62766;62.622;17.912;2023-05-03T08:08:34;101734.75;;;7.06;33.47
44351;BME280;62766;62.622;17.912;2023-05-03T08:11:03;101739.85;;;7.08;33.67
44351;BME280;62766;62.622;17.912;2023-05-03T08:13:32;101738.16;;;7.02;33.74
44351;BME280;62766;62.622;17.912;2023-05-03T08:16:01;101743.67;;;6.92;33.61
44351;BME280;62766;62.622;17.912;2023-05-03T08:18:29;101743.64;;;6.95;33.14
44351;BME280;62766;62.622;17.912;2023-05-03T08:20:58;101751.57;;;6.90;33.44
44351;BME280;62766;62.622;17.912;2023-05-03T08:23:27;101758.10;;;6.90;33.36
44351;BME280;62766;62.622;17.912;2023-05-03T08:25:55;101759.26;;;7.21;33.03
44351;BME280;62766;62.622;17.912;2023-05-03T08:28:23;101757.49;;;7.27;32.65
44351;BME280;62766;62.622;17.912;2023-05-03T08:30:52;101761.69;;;7.41;32.56
44351;BME280;62766;62.622;17.912;2023-05-03T08:33:20;101767.45;;;7.57;33.07
44351;BME280;62766;62.622;17.912;2023-05-03T08:35:48;101763.98;;;7.88;32.40
44351;BME280;62766;62.622;17.912;2023-05-03T08:38:17;101758.68;;;8.09;32.60
44351;BME280;62766;62.622;17.912;2023-05-03T08:40:47;101757.88;;;8.50;33.21
44351;BME280;62766;62.622;17.912;2023-05-03T08:43:19;101761.00;;;8.99;31.98
44351;BME280;62766;62.622;17.912;2023-05-03T08:45:47;101760.72;;;9.23;31.18
44351;BME280;62766;62.622;17.912;2023-05-03T08:48:15;101767.34;;;8.98;30.12
44351;BME280;62766;62.622;17.912;2023-05-03T08:50:44;101763.31;;;8.53;30.29
44351;BME280;62766;62.622;17.912;2023-05-03T08:53:12;101761.22;;;8.49;30.61
44351;BME280;62766;62.622;17.912;2023-05-03T08:55:41;101765.67;;;8.49;30.65
44351;BME280;62766;62.622;17.912;2023-05-03T08:58:09;101765.34;;;8.51;31.00
44351;BME280;62766;62.622;17.912;2023-05-03T09:00:37;101773.26;;;8.37;30.42
44351;BME280;62766;62.622;17.912;2023-05-03T09:03:06;101773.70;;;8.09;30.75
44351;BME280;62766;62.622;17.912;2023-05-03T09:05:35;101782.82;;;8.18;30.68
44351;BME280;62766;62.622;17.912;2023-05-03T09:08:06;101785.28;;;8.11;30.15
44351;BME280;62766;62.622;17.912;2023-05-03T09:10:37;101789.22;;;8.24;30.04
44351;BME280;62766;62.622;17.912;2023-05-03T09:13:07;101781.76;;;8.22;29.57
44351;BME280;62766;62.622;17.912;2023-05-03T09:15:36;101787.36;;;8.08;28.81
44351;BME280;62766;62.622;17.912;2023-05-03T09:18:08;101789.84;;;7.90;28.84
44351;BME280;62766;62.622;17.912;2023-05-03T09:20:38;101793.28;;;8.05;28.54
44351;BME280;62766;62.622;17.912;2023-05-03T09:23:07;101790.05;;;8.05;28.40
44351;BME280;62766;62.622;17.912;2023-05-03T09:25:41;101785.36;;;8.44;28.53
44351;BME280;62766;62.622;17.912;2023-05-03T09:28:10;101786.46;;;8.92;29.13
44351;BME280;62766;62.622;17.912;2023-05-03T09:30:38;101790.56;;;9.41;27.35
44351;BME280;62766;62.622;17.912;2023-05-03T09:33:07;101795.49;;;9.43;27.48
44351;BME280;62766;62.622;17.912;2023-05-03T09:35:35;101798.64;;;9.10;26.92
44351;BME280;62766;62.622;17.912;2023-05-03T09:38:04;101803.40;;;8.89;27.19
44351;BME280;62766;62.622;17.912;2023-05-03T09:40:33;101802.84;;;8.34;28.00
44351;BME280;62766;62.622;17.912;2023-05-03T09:43:07;101813.15;;;8.29;28.24
44351;BME280;62766;62.622;17.912;2023-05-03T09:45:37;101820.31;;;7.93;28.76
44351;BME280;62766;62.622;17.912;2023-05-03T09:48:06;101822.40;;;8.06;28.98
44351;BME280;62766;62.622;17.912;2023-05-03T09:50:35;101821.26;;;8.04;27.68
44351;BME280;62766;62.622;17.912;2023-05-03T09:53:05;101826.68;;;8.10;27.66
44351;BME280;62766;62.622;17.912;2023-05-03T09:55:35;101823.07;;;8.09;28.36
44351;BME280;62766;62.622;17.912;2023-05-03T09:58:05;101826.69;;;8.25;28.50
44351;BME280;62766;62.622;17.912;2023-05-03T10:03:38;101825.14;;;8.15;28.33
44351;BME280;62766;62.622;17.912;2023-05-03T10:06:17;101835.51;;;7.96;29.07
44351;BME280;62766;62.622;17.912;2023-05-03T10:08:52;101835.74;;;7.85;28.85
44351;BME280;62766;62.622;17.912;2023-05-03T10:11:23;101839.11;;;7.71;29.19
44351;BME280;62766;62.622;17.912;2023-05-03T10:13:53;101846.88;;;7.82;29.65
44351;BME280;62766;62.622;17.912;2023-05-03T10:16:26;101850.89;;;8.07;29.42
44351;BME280;62766;62.622;17.912;2023-05-03T10:19:04;101846.39;;;8.10;28.21
44351;BME280;62766;62.622;17.912;2023-05-03T10:21:46;101851.26;;;8.10;28.06
44351;BME280;62766;62.622;17.912;2023-05-03T10:24:19;101850.00;;;8.33;28.06
44351;BME280;62766;62.622;17.912;2023-05-03T10:26:50;101843.36;;;8.79;27.96
44351;BME280;62766;62.622;17.912;2023-05-03T10:29:51;101847.14;;;8.98;27.00
44351;BME280;62766;62.622;17.912;2023-05-03T10:32:29;101840.29;;;8.69;26.20
44351;BME280;62766;62.622;17.912;2023-05-03T10:35:01;101853.52;;;8.54;26.69
44351;BME280;62766;62.622;17.912;2023-05-03T10:37:32;101841.42;;;8.45;26.25
44351;BME280;62766;62.622;17.912;2023-05-03T10:40:09;101852.33;;;8.25;26.60
44351;BME280;62766;62.622;17.912;2023-05-03T10:42:42;101858.00;;;8.05;27.03
44351;BME280;62766;62.622;17.912;2023-05-03T10:45:21;101850.66;;;8.46;26.35
44351;BME280;62766;62.622;17.912;2023-05-03T10:48:22;101847.07;;;8.85;26.09
44351;BME280;62766;62.622;17.912;2023-05-03T10:50:51;101845.60;;;9.55;24.94
44351;BME280;62766;62.622;17.912;2023-05-03T10:53:37;101848.97;;;10.09;24.85
44351;BME280;62766;62.622;17.912;2023-05-03T10:56:06;101850.74;;;10.41;23.46
44351;BME280;62766;62.622;17.912;2023-05-03T10:58:37;101842.79;;;10.54;23.90
44351;BME280;62766;62.622;17.912;2023-05-03T11:01:06;101844.94;;;10.02;23.15
44351;BME280;62766;62.622;17.912;2023-05-03T11:03:43;101855.44;;;9.36;23.70
44351;BME280;62766;62.622;17.912;2023-05-03T11:06:46;101855.69;;;9.57;24.93
44351;BME280;62766;62.622;17.912;2023-05-03T11:09:14;101855.08;;;10.23;24.51
44351;BME280;62766;62.622;17.912;2023-05-03T11:11:42;101856.14;;;10.35;24.19
44351;BME280;62766;62.622;17.912;2023-05-03T11:14:11;101860.56;;;10.35;23.47
44351;BME280;62766;62.622;17.912;2023-05-03T11:16:39;101867.07;;;10.13;23.87
44351;BME280;62766;62.622;17.912;2023-05-03T11:19:08;101869.90;;;9.78;23.70
44351;BME280;62766;62.622;17.912;2023-05-03T11:21:36;101860.85;;;9.67;23.90
44351;BME280;62766;62.622;17.912;2023-05-03T11:24:05;101859.95;;;9.89;23.97
44351;BME280;62766;62.622;17.912;2023-05-03T11:26:35;101858.91;;;10.37;22.89
44351;BME280;62766;62.622;17.912;2023-05-03T11:29:04;101856.25;;;10.34;23.03
44351;BME280;62766;62.622;17.912;2023-05-03T11:31:33;101859.75;;;10.27;22.63
44351;BME280;62766;62.622;17.912;2023-05-03T11:34:04;101864.64;;;10.15;22.29
44351;BME280;62766;62.622;17.912;2023-05-03T11:36:34;101865.71;;;9.81;22.56
44351;BME280;62766;62.622;17.912;2023-05-03T11:39:03;101876.56;;;9.76;23.15
44351;BME280;62766;62.622;17.912;2023-05-03T11:41:31;101879.32;;;9.42;22.40
44351;BME280;62766;62.622;17.912;2023-05-03T11:44:00;101879.83;;;9.17;23.12
44351;BME280;62766;62.622;17.912;2023-05-03T11:46:32;101880.75;;;9.27;23.40
44351;BME280;62766;62.622;17.912;2023-05-03T11:49:01;101882.91;;;9.54;22.53
44351;BME280;62766;62.622;17.912;2023-05-03T11:51:30;101883.40;;;9.84;22.85
44351;BME280;62766;62.622;17.912;2023-05-03T11:53:59;101885.39;;;10.06;22.73
44351;BME280;62766;62.622;17.912;2023-05-03T11:56:28;101879.47;;;10.35;22.19
44351;BME280;62766;62.622;17.912;2023-05-03T11:58:58;101889.58;;;10.33;22.09
44351;BME280;62766;62.622;17.912;2023-05-03T12:01:27;101891.21;;;9.98;22.03
44351;BME280;62766;62.622;17.912;2023-05-03T12:03:58;101891.13;;;10.06;22.30
44351;BME280;62766;62.622;17.912;2023-05-03T12:06:27;101895.48;;;10.01;22.38
44351;BME280;62766;62.622;17.912;2023-05-03T12:08:56;101893.67;;;9.82;22.31
44351;BME280;62766;62.622;17.912;2023-05-03T12:11:25;101895.58;;;10.05;22.41
44351;BME280;62766;62.622;17.912;2023-05-03T12:13:55;101897.68;;;10.50;22.22
44351;BME280;62766;62.622;17.912;2023-05-03T12:16:26;101887.34;;;10.89;21.62
44351;BME280;62766;62.622;17.912;2023-05-03T12:18:57;101887.69;;;10.73;20.99
44351;BME280;62766;62.622;17.912;2023-05-03T12:21:42;101891.81;;;10.64;21.41
44351;BME280;62766;62.622;17.912;2023-05-03T12:24:11;101901.77;;;10.26;21.55
44351;BME280;62766;62.622;17.912;2023-05-03T12:26:39;101909.04;;;10.07;21.85
44351;BME280;62766;62.622;17.912;2023-05-03T12:29:07;101914.66;;;9.83;21.44
44351;BME280;62766;62.622;17.912;2023-05-03T12:31:36;101911.29;;;9.95;21.21
44351;BME280;62766;62.622;17.912;2023-05-03T12:34:04;101910.42;;;10.47;21.85
44351;BME280;62766;62.622;17.912;2023-05-03T12:36:34;101912.13;;;10.92;21.15
44351;BME280;62766;62.622;17.912;2023-05-03T12:39:03;101909.03;;;11.23;20.75
44351;BME280;62766;62.622;17.912;2023-05-03T12:41:31;101903.15;;;11.29;20.37
44351;BME280;62766;62.622;17.912;2023-05-03T12:43:59;101905.08;;;12.14;20.60
44351;BME280;62766;62.622;17.912;2023-05-03T12:46:27;101899.17;;;12.38;20.42
44351;BME280;62766;62.622;17.912;2023-05-03T12:48:55;101897.03;;;12.58;19.72
44351;BME280;62766;62.622;17.912;2023-05-03T12:51:24;101904.11;;;12.31;19.79
44351;BME280;62766;62.622;17.912;2023-05-03T12:53:52;101902.83;;;11.98;19.54
44351;BME280;62766;62.622;17.912;2023-05-03T12:56:21;101909.83;;;11.48;20.02
44351;BME280;62766;62.622;17.912;2023-05-03T12:58:48;101909.51;;;11.37;20.44
44351;BME280;62766;62.622;17.912;2023-05-03T13:01:17;101908.73;;;11.91;20.00
44351;BME280;62766;62.622;17.912;2023-05-03T13:03:45;101905.32;;;11.99;19.33